createdAt,value
2017-11-30T00:00:27.880Z,-5.86
2017-11-30T00:01:28.482Z,-5.95
2017-11-30T00:02:29.085Z,-5.93
2017-11-30T00:03:29.689Z,-5.76
2017-11-30T00:04:30.292Z,-5.79
2017-11-30T00:05:30.892Z,-5.86
2017-11-30T00:06:31.518Z,-5.90
2017-11-30T00:07:32.125Z,-5.92
2017-11-30T00:08:32.721Z,-5.93
2017-11-30T00:09:33.357Z,-5.99
2017-11-30T00:10:33.953Z,-6.10
2017-11-30T00:11:34.558Z,-6.02
2017-11-30T00:12:35.193Z,-6.17
2017-11-30T00:13:35.792Z,-6.21
2017-11-30T00:14:36.397Z,-6.11
2017-11-30T00:15:37.004Z,-6.20
2017-11-30T00:16:37.603Z,-6.24
2017-11-30T00:17:38.204Z,-6.24
2017-11-30T00:18:38.813Z,-6.24
2017-11-30T00:19:39.407Z,-6.24
2017-11-30T00:20:40.007Z,-6.24
2017-11-30T00:21:40.608Z,-6.23
2017-11-30T00:22:41.242Z,-6.32
2017-11-30T00:23:41.810Z,-6.28
2017-11-30T00:24:42.413Z,-6.23
2017-11-30T00:25:43.011Z,-6.18
2017-11-30T00:26:43.645Z,-6.18
2017-11-30T00:27:44.242Z,-6.28
2017-11-30T00:28:44.875Z,-6.24
2017-11-30T00:29:45.482Z,-6.32
2017-11-30T00:30:46.080Z,-6.29
2017-11-30T00:31:46.681Z,-6.34
2017-11-30T00:32:47.289Z,-6.24
2017-11-30T00:33:47.884Z,-6.26
2017-11-30T00:34:48.484Z,-6.26
2017-11-30T00:35:49.087Z,-6.34
2017-11-30T00:36:49.692Z,-6.23
2017-11-30T00:37:50.289Z,-6.26
2017-11-30T00:38:50.899Z,-6.36
2017-11-30T00:39:51.492Z,-6.32
2017-11-30T00:40:52.128Z,-6.34
2017-11-30T00:41:52.729Z,-6.29
2017-11-30T00:42:53.327Z,-6.32
2017-11-30T00:43:53.955Z,-6.42
2017-11-30T00:44:54.561Z,-6.35
2017-11-30T00:45:55.159Z,-6.32
2017-11-30T00:46:55.788Z,-6.34
2017-11-30T00:47:56.394Z,-6.44
2017-11-30T00:48:57.019Z,-6.47
2017-11-30T00:49:57.618Z,-6.50
2017-11-30T00:50:58.219Z,-6.50
2017-11-30T00:51:58.823Z,-6.58
2017-11-30T00:52:59.472Z,-6.63
2017-11-30T00:54:00.054Z,-6.63
2017-11-30T00:55:00.653Z,-6.60
2017-11-30T00:56:01.252Z,-6.65
2017-11-30T00:57:01.852Z,-6.74
2017-11-30T00:58:02.456Z,-6.71
2017-11-30T00:59:03.054Z,-6.75
2017-11-30T01:00:03.654Z,-6.74
2017-11-30T01:01:04.253Z,-6.87
2017-11-30T01:02:04.852Z,-6.84
2017-11-30T01:03:05.454Z,-6.87
2017-11-30T01:04:06.087Z,-6.87
2017-11-30T01:05:06.689Z,-6.87
2017-11-30T01:06:07.286Z,-6.79
2017-11-30T01:07:07.891Z,-6.87
2017-11-30T01:08:08.493Z,-6.86
2017-11-30T01:09:09.124Z,-6.81
2017-11-30T01:10:09.724Z,-6.86
2017-11-30T01:11:10.323Z,-6.83
2017-11-30T01:12:10.924Z,-6.87
2017-11-30T01:13:11.552Z,-6.81
2017-11-30T01:14:12.152Z,-6.90
2017-11-30T01:15:12.782Z,-6.89
2017-11-30T01:16:13.386Z,-6.83
2017-11-30T01:17:13.983Z,-6.83
2017-11-30T01:18:14.583Z,-6.81
2017-11-30T01:19:15.190Z,-6.78
2017-11-30T01:20:15.786Z,-6.83
2017-11-30T01:21:16.383Z,-6.83
2017-11-30T01:22:16.982Z,-6.69
2017-11-30T01:23:17.582Z,-6.84
2017-11-30T01:24:18.184Z,-6.79
2017-11-30T01:25:18.813Z,-6.86
2017-11-30T01:26:19.412Z,-6.81
2017-11-30T01:27:20.013Z,-6.90
2017-11-30T01:28:20.612Z,-6.87
2017-11-30T01:29:21.217Z,-6.78
2017-11-30T01:30:21.812Z,-6.94
2017-11-30T01:31:22.417Z,-6.90
2017-11-30T01:32:23.017Z,-6.90
2017-11-30T01:33:23.623Z,-6.87
2017-11-30T01:34:24.232Z,-6.87
2017-11-30T01:35:24.853Z,-6.87
2017-11-30T01:36:25.485Z,-6.79
2017-11-30T01:37:26.083Z,-6.93
2017-11-30T01:38:26.683Z,-6.86
2017-11-30T01:39:27.284Z,-6.90
2017-11-30T01:40:27.914Z,-6.89
2017-11-30T01:41:28.517Z,-6.87
2017-11-30T01:42:29.117Z,-6.87
2017-11-30T01:43:29.721Z,-6.84
2017-11-30T01:44:30.319Z,-6.89
2017-11-30T01:45:30.921Z,-6.83
2017-11-30T01:46:31.528Z,-6.89
2017-11-30T01:47:32.124Z,-6.90
2017-11-30T01:48:32.761Z,-6.83
2017-11-30T01:49:33.393Z,-6.79
2017-11-30T01:50:33.995Z,-6.75
2017-11-30T01:51:34.624Z,-6.83
2017-11-30T01:52:35.226Z,-6.71
2017-11-30T01:53:35.827Z,-6.68
2017-11-30T01:54:36.426Z,-6.63
2017-11-30T01:55:37.025Z,-6.58
2017-11-30T01:56:37.655Z,-6.58
2017-11-30T01:57:38.253Z,-6.60
2017-11-30T01:58:38.857Z,-6.61
2017-11-30T01:59:39.486Z,-6.58
2017-11-30T02:00:40.122Z,-6.53
2017-11-30T02:01:40.724Z,-6.50
2017-11-30T02:02:41.320Z,-6.50
2017-11-30T02:03:41.973Z,-6.47
2017-11-30T02:04:42.569Z,-6.49
2017-11-30T02:05:43.167Z,-6.47
2017-11-30T02:06:43.766Z,-6.54
2017-11-30T02:07:44.367Z,-6.44
2017-11-30T02:08:44.969Z,-6.46
2017-11-30T02:09:45.568Z,-6.56
2017-11-30T02:10:46.206Z,-6.49
2017-11-30T02:11:46.807Z,-6.52
2017-11-30T02:12:47.402Z,-6.54
2017-11-30T02:13:48.056Z,-6.52
2017-11-30T02:14:48.655Z,-6.54
2017-11-30T02:15:49.253Z,-6.52
2017-11-30T02:16:49.881Z,-6.54
2017-11-30T02:17:50.486Z,-6.56
2017-11-30T02:18:51.114Z,-6.52
2017-11-30T02:19:51.716Z,-6.56
2017-11-30T02:20:52.319Z,-6.53
2017-11-30T02:21:52.916Z,-6.58
2017-11-30T02:22:53.549Z,-6.63
2017-11-30T02:23:54.159Z,-6.63
2017-11-30T02:24:54.752Z,-6.75
2017-11-30T02:25:55.354Z,-6.58
2017-11-30T02:26:55.954Z,-6.61
2017-11-30T02:27:56.588Z,-6.60
2017-11-30T02:28:57.192Z,-6.65
2017-11-30T02:29:57.789Z,-6.58
2017-11-30T02:30:58.389Z,-6.63
2017-11-30T02:31:58.993Z,-6.60
2017-11-30T02:32:59.596Z,-6.71
2017-11-30T02:34:00.271Z,-6.72
2017-11-30T02:35:00.871Z,-6.68
2017-11-30T02:36:01.468Z,-6.66
2017-11-30T02:37:02.073Z,-6.74
2017-11-30T02:38:02.674Z,-6.79
2017-11-30T02:39:03.330Z,-6.74
2017-11-30T02:40:03.933Z,-6.84
2017-11-30T02:41:04.529Z,-6.84
2017-11-30T02:42:05.129Z,-6.83
2017-11-30T02:43:05.760Z,-6.87
2017-11-30T02:44:06.393Z,-6.79
2017-11-30T02:45:07.021Z,-6.74
2017-11-30T02:46:07.620Z,-6.84
2017-11-30T02:47:08.222Z,-6.90
2017-11-30T02:48:08.825Z,-6.86
2017-11-30T02:49:09.472Z,-6.84
2017-11-30T02:50:10.073Z,-6.86
2017-11-30T02:51:10.674Z,-6.93
2017-11-30T02:52:11.275Z,-6.93
2017-11-30T02:53:11.872Z,-6.92
2017-11-30T02:54:12.522Z,-6.94
2017-11-30T02:55:13.120Z,-7.00
2017-11-30T02:56:13.727Z,-7.03
2017-11-30T02:57:14.322Z,-6.93
2017-11-30T02:58:14.925Z,-7.03
2017-11-30T02:59:15.530Z,-6.97
2017-11-30T03:00:16.133Z,-6.94
2017-11-30T03:01:16.736Z,-6.97
2017-11-30T03:02:17.332Z,-6.94
2017-11-30T03:03:17.937Z,-7.03
2017-11-30T03:04:18.538Z,-6.99
2017-11-30T03:05:19.168Z,-6.99
2017-11-30T03:06:19.766Z,-6.93
2017-11-30T03:07:20.370Z,-7.04
2017-11-30T03:08:20.968Z,-7.00
2017-11-30T03:09:21.569Z,-6.97
2017-11-30T03:10:22.168Z,-6.93
2017-11-30T03:11:22.768Z,-7.03
2017-11-30T03:12:23.373Z,-7.13
2017-11-30T03:13:23.971Z,-7.00
2017-11-30T03:14:24.570Z,-7.05
2017-11-30T03:15:25.171Z,-7.04
2017-11-30T03:16:25.802Z,-7.00
2017-11-30T03:17:26.400Z,-7.03
2017-11-30T03:18:26.999Z,-7.00
2017-11-30T03:19:27.600Z,-7.07
2017-11-30T03:20:28.204Z,-7.04
2017-11-30T03:21:28.808Z,-7.08
2017-11-30T03:22:29.404Z,-6.93
2017-11-30T03:23:30.016Z,-7.03
2017-11-30T03:24:30.606Z,-6.94
2017-11-30T03:25:31.215Z,-6.96
2017-11-30T03:26:31.815Z,-7.08
2017-11-30T03:27:32.412Z,-7.14
2017-11-30T03:28:33.018Z,-7.11
2017-11-30T03:29:33.616Z,-7.04
2017-11-30T03:30:34.221Z,-6.99
2017-11-30T03:31:34.816Z,-7.04
2017-11-30T03:32:35.414Z,-7.10
2017-11-30T03:33:36.018Z,-7.15
2017-11-30T03:34:36.614Z,-7.05
2017-11-30T03:35:37.214Z,-7.15
2017-11-30T03:36:37.849Z,-7.00
2017-11-30T03:37:38.479Z,-7.15
2017-11-30T03:38:39.079Z,-7.11
2017-11-30T03:39:39.681Z,-7.17
2017-11-30T03:40:40.279Z,-7.15
2017-11-30T03:41:40.877Z,-7.11
2017-11-30T03:42:41.477Z,-7.11
2017-11-30T03:43:42.076Z,-7.14
2017-11-30T03:44:42.682Z,-7.22
2017-11-30T03:45:43.278Z,-7.22
2017-11-30T03:46:43.888Z,-7.25
2017-11-30T03:47:44.475Z,-7.25
2017-11-30T03:48:45.074Z,-7.25
2017-11-30T03:49:45.681Z,-7.25
2017-11-30T03:50:46.276Z,-7.18
2017-11-30T03:51:46.886Z,-7.18
2017-11-30T03:52:47.481Z,-7.23
2017-11-30T03:53:48.081Z,-7.29
2017-11-30T03:54:48.680Z,-7.25
2017-11-30T03:55:49.279Z,-7.28
2017-11-30T03:56:49.884Z,-7.35
2017-11-30T03:57:50.477Z,-7.32
2017-11-30T03:58:51.078Z,-7.43
2017-11-30T03:59:51.683Z,-7.33
2017-11-30T04:00:52.285Z,-7.32
2017-11-30T04:01:52.884Z,-7.40
2017-11-30T04:02:53.483Z,-7.32
2017-11-30T04:03:54.086Z,-7.33
2017-11-30T04:04:54.687Z,-7.28
2017-11-30T04:05:55.286Z,-7.31
2017-11-30T04:06:55.884Z,-7.31
2017-11-30T04:07:56.488Z,-7.29
2017-11-30T04:08:57.084Z,-7.35
2017-11-30T04:09:57.684Z,-7.31
2017-11-30T04:10:58.289Z,-7.38
2017-11-30T04:11:58.892Z,-7.33
2017-11-30T04:12:59.485Z,-7.36
2017-11-30T04:14:00.329Z,-7.38
2017-11-30T04:15:00.855Z,-7.40
2017-11-30T04:16:01.467Z,-7.44
2017-11-30T04:17:02.067Z,-7.36
2017-11-30T04:18:02.693Z,-7.38
2017-11-30T04:19:03.297Z,-7.40
2017-11-30T04:20:03.897Z,-7.38
2017-11-30T04:21:04.509Z,-7.44
2017-11-30T04:22:05.106Z,-7.36
2017-11-30T04:23:05.702Z,-7.29
2017-11-30T04:24:06.304Z,-7.33
2017-11-30T04:25:06.939Z,-7.31
2017-11-30T04:26:07.536Z,-7.29
2017-11-30T04:27:08.141Z,-7.32
2017-11-30T04:28:08.738Z,-7.29
2017-11-30T04:29:09.340Z,-7.29
2017-11-30T04:30:09.940Z,-7.25
2017-11-30T04:31:10.541Z,-7.25
2017-11-30T04:32:11.142Z,-7.28
2017-11-30T04:33:11.750Z,-7.28
2017-11-30T04:34:12.343Z,-7.32
2017-11-30T04:35:12.973Z,-7.25
2017-11-30T04:36:13.572Z,-7.32
2017-11-30T04:37:14.170Z,-7.29
2017-11-30T04:38:14.809Z,-7.31
2017-11-30T04:39:15.413Z,-7.26
2017-11-30T04:40:16.015Z,-7.28
2017-11-30T04:41:16.647Z,-7.33
2017-11-30T04:42:17.245Z,-7.33
2017-11-30T04:43:17.845Z,-7.28
2017-11-30T04:44:18.442Z,-7.43
2017-11-30T04:45:19.041Z,-7.32
2017-11-30T04:46:19.672Z,-7.47
2017-11-30T04:47:20.269Z,-7.40
2017-11-30T04:48:20.873Z,-7.31
2017-11-30T04:49:21.470Z,-7.32
2017-11-30T04:50:22.071Z,-7.43
2017-11-30T04:51:22.670Z,-7.40
2017-11-30T04:52:23.301Z,-7.42
2017-11-30T04:53:23.909Z,-7.36
2017-11-30T04:54:24.536Z,-7.28
2017-11-30T04:55:25.138Z,-7.32
2017-11-30T04:56:25.734Z,-7.29
2017-11-30T04:57:26.341Z,-7.31
2017-11-30T04:58:26.934Z,-7.29
2017-11-30T04:59:27.538Z,-7.23
2017-11-30T05:00:28.135Z,-7.33
2017-11-30T05:01:28.734Z,-7.26
2017-11-30T05:02:29.339Z,-7.33
2017-11-30T05:03:29.936Z,-7.29
2017-11-30T05:04:30.535Z,-7.26
2017-11-30T05:05:31.132Z,-7.26
2017-11-30T05:06:31.733Z,-7.22
2017-11-30T05:07:32.339Z,-7.31
2017-11-30T05:08:32.935Z,-7.25
2017-11-30T05:09:33.532Z,-7.44
2017-11-30T05:10:34.136Z,-7.42
2017-11-30T05:11:34.751Z,-7.43
2017-11-30T05:12:35.337Z,-7.49
2017-11-30T05:13:35.935Z,-7.44
2017-11-30T05:14:36.570Z,-7.46
2017-11-30T05:15:37.167Z,-7.49
2017-11-30T05:16:37.766Z,-7.47
2017-11-30T05:17:38.364Z,-7.44
2017-11-30T05:18:38.974Z,-7.38
2017-11-30T05:19:39.565Z,-7.46
2017-11-30T05:20:40.161Z,-7.38
2017-11-30T05:21:40.766Z,-7.35
2017-11-30T05:22:41.366Z,-7.35
2017-11-30T05:23:41.964Z,-7.38
2017-11-30T05:24:42.604Z,-7.47
2017-11-30T05:25:43.167Z,-7.42
2017-11-30T05:26:43.766Z,-7.40
2017-11-30T05:27:44.370Z,-7.46
2017-11-30T05:28:44.968Z,-7.44
2017-11-30T05:29:45.595Z,-7.50
2017-11-30T05:30:46.195Z,-7.46
2017-11-30T05:31:46.798Z,-7.49
2017-11-30T05:32:47.420Z,-7.46
2017-11-30T05:33:48.019Z,-7.47
2017-11-30T05:34:48.621Z,-7.43
2017-11-30T05:35:49.219Z,-7.47
2017-11-30T05:36:49.816Z,-7.31
2017-11-30T05:37:50.419Z,-7.35
2017-11-30T05:38:51.016Z,-7.31
2017-11-30T05:39:51.625Z,-7.28
2017-11-30T05:40:52.216Z,-7.28
2017-11-30T05:41:52.814Z,-7.29
2017-11-30T05:42:53.413Z,-7.33
2017-11-30T05:43:54.012Z,-7.43
2017-11-30T05:44:54.648Z,-7.46
2017-11-30T05:45:55.271Z,-7.53
2017-11-30T05:46:55.906Z,-7.49
2017-11-30T05:47:56.503Z,-7.54
2017-11-30T05:48:57.104Z,-7.42
2017-11-30T05:49:57.704Z,-7.52
2017-11-30T05:50:58.305Z,-7.44
2017-11-30T05:51:58.902Z,-7.42
2017-11-30T05:52:59.532Z,-7.33
2017-11-30T05:54:00.131Z,-7.29
2017-11-30T05:55:00.730Z,-7.31
2017-11-30T05:56:01.334Z,-7.29
2017-11-30T05:57:01.930Z,-7.25
2017-11-30T05:58:02.563Z,-7.28
2017-11-30T05:59:03.159Z,-7.21
2017-11-30T06:00:03.761Z,-7.29
2017-11-30T06:01:04.365Z,-7.28
2017-11-30T06:02:04.968Z,-7.31
2017-11-30T06:03:05.562Z,-7.29
2017-11-30T06:04:06.162Z,-7.23
2017-11-30T06:05:06.763Z,-7.17
2017-11-30T06:06:07.362Z,-7.17
2017-11-30T06:07:07.962Z,-7.15
2017-11-30T06:08:08.559Z,-7.14
2017-11-30T06:09:09.157Z,-7.18
2017-11-30T06:10:09.759Z,-7.13
2017-11-30T06:11:10.360Z,-7.26
2017-11-30T06:12:10.964Z,-7.22
2017-11-30T06:13:11.560Z,-7.26
2017-11-30T06:14:12.161Z,-7.29
2017-11-30T06:15:12.760Z,-7.26
2017-11-30T06:16:13.358Z,-7.28
2017-11-30T06:17:13.959Z,-7.25
2017-11-30T06:18:14.586Z,-7.26
2017-11-30T06:19:15.222Z,-7.32
2017-11-30T06:20:15.814Z,-7.28
2017-11-30T06:21:16.417Z,-7.25
2017-11-30T06:22:17.013Z,-7.32
2017-11-30T06:23:17.613Z,-7.35
2017-11-30T06:24:18.211Z,-7.40
2017-11-30T06:25:18.809Z,-7.35
2017-11-30T06:26:19.410Z,-7.36
2017-11-30T06:27:20.010Z,-7.35
2017-11-30T06:28:20.610Z,-7.36
2017-11-30T06:29:21.210Z,-7.40
2017-11-30T06:30:21.809Z,-7.47
2017-11-30T06:31:22.409Z,-7.50
2017-11-30T06:32:23.009Z,-7.53
2017-11-30T06:33:23.617Z,-7.67
2017-11-30T06:34:24.217Z,-7.67
2017-11-30T06:35:24.813Z,-7.70
2017-11-30T06:36:25.418Z,-7.67
2017-11-30T06:37:26.018Z,-7.71
2017-11-30T06:38:26.620Z,-7.74
2017-11-30T06:39:27.217Z,-7.78
2017-11-30T06:40:27.816Z,-7.70
2017-11-30T06:41:28.414Z,-7.71
2017-11-30T06:42:29.018Z,-7.83
2017-11-30T06:43:29.615Z,-7.78
2017-11-30T06:44:30.212Z,-7.72
2017-11-30T06:45:30.817Z,-7.75
2017-11-30T06:46:31.423Z,-7.72
2017-11-30T06:47:32.022Z,-7.81
2017-11-30T06:48:32.629Z,-7.82
2017-11-30T06:49:33.227Z,-7.79
2017-11-30T06:50:33.828Z,-7.74
2017-11-30T06:51:34.428Z,-7.79
2017-11-30T06:52:35.029Z,-7.79
2017-11-30T06:53:35.652Z,-7.81
2017-11-30T06:54:36.255Z,-7.75
2017-11-30T06:55:36.852Z,-7.78
2017-11-30T06:56:37.451Z,-7.83
2017-11-30T06:57:38.051Z,-7.72
2017-11-30T06:58:38.652Z,-7.81
2017-11-30T06:59:39.253Z,-7.81
2017-11-30T07:00:39.868Z,-7.78
2017-11-30T07:01:40.458Z,-7.79
2017-11-30T07:02:41.065Z,-7.75
2017-11-30T07:03:41.656Z,-7.74
2017-11-30T07:04:42.285Z,-7.75
2017-11-30T07:05:42.883Z,-7.61
2017-11-30T07:06:43.488Z,-7.78
2017-11-30T07:07:44.087Z,-7.60
2017-11-30T07:08:44.689Z,-7.64
2017-11-30T07:09:45.286Z,-7.67
2017-11-30T07:10:45.890Z,-7.68
2017-11-30T07:11:46.486Z,-7.61
2017-11-30T07:12:47.092Z,-7.58
2017-11-30T07:13:47.726Z,-7.63
2017-11-30T07:14:48.357Z,-7.52
2017-11-30T07:15:48.960Z,-7.52
2017-11-30T07:16:49.551Z,-7.56
2017-11-30T07:17:50.180Z,-7.54
2017-11-30T07:18:50.814Z,-7.56
2017-11-30T07:19:51.411Z,-7.49
2017-11-30T07:20:52.045Z,-7.52
2017-11-30T07:21:52.638Z,-7.38
2017-11-30T07:22:53.243Z,-7.47
2017-11-30T07:23:53.841Z,-7.42
2017-11-30T07:24:54.478Z,-7.29
2017-11-30T07:25:55.086Z,-7.28
2017-11-30T07:26:55.686Z,-7.26
2017-11-30T07:27:56.289Z,-7.29
2017-11-30T07:28:56.923Z,-7.31
2017-11-30T07:29:57.520Z,-7.25
2017-11-30T07:30:58.118Z,-7.21
2017-11-30T07:31:58.724Z,-7.26
2017-11-30T07:32:59.353Z,-7.28
2017-11-30T07:33:59.984Z,-7.43
2017-11-30T07:35:00.613Z,-7.36
2017-11-30T07:36:01.214Z,-7.40
2017-11-30T07:37:01.866Z,-7.38
2017-11-30T07:38:02.447Z,-7.32
2017-11-30T07:39:03.077Z,-7.15
2017-11-30T07:40:03.678Z,-7.18
2017-11-30T07:41:04.276Z,-7.03
2017-11-30T07:42:04.876Z,-6.99
2017-11-30T07:43:05.511Z,-6.97
2017-11-30T07:44:06.115Z,-6.93
2017-11-30T07:45:06.717Z,-6.90
2017-11-30T07:46:07.314Z,-6.97
2017-11-30T07:47:07.922Z,-6.93
2017-11-30T07:48:08.523Z,-6.97
2017-11-30T07:49:09.123Z,-6.97
2017-11-30T07:50:09.722Z,-6.86
2017-11-30T07:51:10.328Z,-6.89
2017-11-30T07:52:10.930Z,-6.92
2017-11-30T07:53:11.536Z,-6.83
2017-11-30T07:54:12.137Z,-6.96
2017-11-30T07:55:12.737Z,-6.90
2017-11-30T07:56:13.345Z,-6.75
2017-11-30T07:57:13.953Z,-6.78
2017-11-30T07:58:14.549Z,-6.71
2017-11-30T07:59:15.160Z,-6.76
2017-11-30T08:00:15.790Z,-6.74
2017-11-30T08:01:16.390Z,-6.75
2017-11-30T08:02:16.991Z,-6.58
2017-11-30T08:03:17.594Z,-6.60
2017-11-30T08:04:18.223Z,-6.54
2017-11-30T08:05:18.826Z,-6.56
2017-11-30T08:06:19.426Z,-6.50
2017-11-30T08:07:20.028Z,-6.52
2017-11-30T08:08:20.628Z,-6.56
2017-11-30T08:09:21.233Z,-6.46
2017-11-30T08:10:21.840Z,-6.44
2017-11-30T08:11:22.472Z,-6.34
2017-11-30T08:12:23.121Z,-6.35
2017-11-30T08:13:23.714Z,-6.28
2017-11-30T08:14:24.314Z,-6.31
2017-11-30T08:15:24.917Z,-6.24
2017-11-30T08:16:25.524Z,-6.28
2017-11-30T08:17:26.125Z,-6.29
2017-11-30T08:18:26.729Z,-6.28
2017-11-30T08:19:27.334Z,-6.41
2017-11-30T08:20:27.948Z,-6.24
2017-11-30T08:21:28.577Z,-6.14
2017-11-30T08:22:29.179Z,-6.20
2017-11-30T08:23:29.783Z,-6.20
2017-11-30T08:24:30.421Z,-6.14
2017-11-30T08:25:31.024Z,-6.14
2017-11-30T08:26:31.628Z,-6.15
2017-11-30T08:27:32.231Z,-6.14
2017-11-30T08:28:32.839Z,-6.10
2017-11-30T08:29:33.442Z,-6.11
2017-11-30T08:30:34.054Z,-6.14
2017-11-30T08:31:34.687Z,-6.13
2017-11-30T08:32:35.297Z,-6.17
2017-11-30T08:33:35.905Z,-6.23
2017-11-30T08:34:36.539Z,-6.24
2017-11-30T08:35:37.138Z,-6.17
2017-11-30T08:36:37.743Z,-6.17
2017-11-30T08:37:38.346Z,-6.10
2017-11-30T08:38:38.948Z,-6.05
2017-11-30T08:39:39.554Z,-6.03
2017-11-30T08:40:40.158Z,-5.93
2017-11-30T08:41:40.759Z,-6.00
2017-11-30T08:42:41.365Z,-5.89
2017-11-30T08:43:41.970Z,-5.96
2017-11-30T08:44:42.579Z,-5.96
2017-11-30T08:45:43.184Z,-5.92
2017-11-30T08:46:43.786Z,-5.90
2017-11-30T08:47:44.396Z,-5.92
2017-11-30T08:48:44.999Z,-5.85
2017-11-30T08:49:45.604Z,-5.82
2017-11-30T08:50:46.218Z,-5.86
2017-11-30T08:51:46.820Z,-5.84
2017-11-30T08:52:47.420Z,-5.86
2017-11-30T08:53:48.024Z,-5.86
2017-11-30T08:54:48.627Z,-5.90
2017-11-30T08:55:49.271Z,-5.85
2017-11-30T08:56:49.904Z,-5.93
2017-11-30T08:57:50.475Z,-5.95
2017-11-30T08:58:51.079Z,-6.05
2017-11-30T08:59:51.682Z,-6.10
2017-11-30T09:00:52.286Z,-6.07
2017-11-30T09:01:52.919Z,-6.11
2017-11-30T09:02:53.527Z,-6.08
2017-11-30T09:03:54.162Z,-6.05
2017-11-30T09:04:54.763Z,-6.13
2017-11-30T09:05:55.403Z,-6.10
2017-11-30T09:06:56.003Z,-6.00
2017-11-30T09:07:56.609Z,-5.95
2017-11-30T09:08:57.220Z,-5.89
2017-11-30T09:09:57.826Z,-5.79
2017-11-30T09:10:58.423Z,-5.86
2017-11-30T09:11:59.026Z,-5.90
2017-11-30T09:12:59.633Z,-6.00
2017-11-30T09:14:00.241Z,-5.90
2017-11-30T09:15:00.843Z,-5.89
2017-11-30T09:16:01.452Z,-5.96
2017-11-30T09:17:02.059Z,-5.96
2017-11-30T09:18:02.663Z,-5.89
2017-11-30T09:19:03.272Z,-5.96
2017-11-30T09:20:03.876Z,-5.93
2017-11-30T09:21:04.479Z,-5.89
2017-11-30T09:22:05.112Z,-5.90
2017-11-30T09:23:05.723Z,-5.86
2017-11-30T09:24:06.353Z,-5.90
2017-11-30T09:25:06.960Z,-5.75
2017-11-30T09:26:07.563Z,-5.75
2017-11-30T09:27:08.169Z,-5.76
2017-11-30T09:28:08.781Z,-5.60
2017-11-30T09:29:09.385Z,-5.58
2017-11-30T09:30:10.023Z,-5.47
2017-11-30T09:31:10.652Z,-5.40
2017-11-30T09:32:11.286Z,-5.39
2017-11-30T09:33:11.889Z,-5.36
2017-11-30T09:34:12.496Z,-5.38
2017-11-30T09:35:13.106Z,-5.43
2017-11-30T09:36:13.708Z,-5.27
2017-11-30T09:37:14.314Z,-5.33
2017-11-30T09:38:14.916Z,-5.36
2017-11-30T09:39:15.529Z,-5.36
2017-11-30T09:40:16.130Z,-5.31
2017-11-30T09:41:16.743Z,-5.17
2017-11-30T09:42:17.342Z,-5.19
2017-11-30T09:43:17.950Z,-5.09
2017-11-30T09:44:18.560Z,-5.03
2017-11-30T09:45:19.194Z,-4.95
2017-11-30T09:46:19.806Z,-5.02
2017-11-30T09:47:20.410Z,-5.02
2017-11-30T09:48:21.017Z,-4.88
2017-11-30T09:49:21.620Z,-4.92
2017-11-30T09:50:22.224Z,-4.98
2017-11-30T09:51:22.828Z,-4.98
2017-11-30T09:52:23.431Z,-4.98
2017-11-30T09:53:24.036Z,-5.06
2017-11-30T09:54:24.641Z,-5.05
2017-11-30T09:55:25.243Z,-5.03
2017-11-30T09:56:25.849Z,-5.02
2017-11-30T09:57:26.457Z,-5.03
2017-11-30T09:58:27.060Z,-5.09
2017-11-30T09:59:27.663Z,-4.99
2017-11-30T10:00:28.268Z,-4.96
2017-11-30T10:01:28.872Z,-4.96
2017-11-30T10:02:29.475Z,-5.06
2017-11-30T10:03:30.086Z,-5.02
2017-11-30T10:04:30.687Z,-4.87
2017-11-30T10:05:31.325Z,-5.00
2017-11-30T10:06:31.930Z,-5.05
2017-11-30T10:07:32.537Z,-4.96
2017-11-30T10:08:33.172Z,-5.14
2017-11-30T10:09:33.809Z,-5.14
2017-11-30T10:10:34.411Z,-5.14
2017-11-30T10:11:35.020Z,-5.10
2017-11-30T10:12:35.621Z,-5.14
2017-11-30T10:13:36.230Z,-5.09
2017-11-30T10:14:36.838Z,-5.00
2017-11-30T10:15:37.447Z,-5.06
2017-11-30T10:16:38.059Z,-5.00
2017-11-30T10:17:38.662Z,-4.87
2017-11-30T10:18:39.350Z,-4.99
2017-11-30T10:19:39.960Z,-4.82
2017-11-30T10:20:40.574Z,-4.82
2017-11-30T10:21:41.172Z,-4.77
2017-11-30T10:22:41.775Z,-4.75
2017-11-30T10:23:42.382Z,-4.71
2017-11-30T10:24:42.984Z,-4.64
2017-11-30T10:25:43.596Z,-4.67
2017-11-30T10:26:44.197Z,-4.55
2017-11-30T10:27:44.800Z,-4.63
2017-11-30T10:28:45.412Z,-4.63
2017-11-30T10:29:46.013Z,-4.64
2017-11-30T10:30:46.649Z,-4.63
2017-11-30T10:31:47.253Z,-4.55
2017-11-30T10:32:47.887Z,-4.59
2017-11-30T10:33:48.492Z,-4.55
2017-11-30T10:34:49.098Z,-4.48
2017-11-30T10:35:49.711Z,-4.45
2017-11-30T10:36:50.346Z,-4.39
2017-11-30T10:37:50.959Z,-4.32
2017-11-30T10:38:51.560Z,-4.39
2017-11-30T10:39:52.182Z,-4.45
2017-11-30T10:40:52.774Z,-4.39
2017-11-30T10:41:53.408Z,-4.52
2017-11-30T10:42:54.018Z,-4.60
2017-11-30T10:43:54.622Z,-4.50
2017-11-30T10:44:55.226Z,-4.55
2017-11-30T10:45:55.835Z,-4.55
2017-11-30T10:46:56.437Z,-4.48
2017-11-30T10:47:57.042Z,-4.35
2017-11-30T10:48:57.756Z,-4.31
2017-11-30T10:49:58.291Z,-4.27
2017-11-30T10:50:58.888Z,-4.24
2017-11-30T10:51:59.499Z,-4.17
2017-11-30T10:53:00.101Z,-4.20
2017-11-30T10:54:00.740Z,-4.13
2017-11-30T10:55:01.360Z,-4.07
2017-11-30T10:56:01.951Z,-4.04
2017-11-30T10:57:02.564Z,-3.99
2017-11-30T10:58:03.165Z,-4.04
2017-11-30T10:59:03.777Z,-4.16
2017-11-30T11:00:04.403Z,-4.24
2017-11-30T11:01:05.014Z,-4.14
2017-11-30T11:02:05.615Z,-4.16
2017-11-30T11:03:06.250Z,-3.99
2017-11-30T11:04:06.861Z,-3.98
2017-11-30T11:05:07.466Z,-3.99
2017-11-30T11:06:08.066Z,-3.83
2017-11-30T11:07:08.677Z,-3.91
2017-11-30T11:08:09.279Z,-3.86
2017-11-30T11:09:09.890Z,-3.91
2017-11-30T11:10:10.496Z,-3.83
2017-11-30T11:11:11.134Z,-3.85
2017-11-30T11:12:11.738Z,-3.80
2017-11-30T11:13:12.377Z,-3.78
2017-11-30T11:14:12.990Z,-3.78
2017-11-30T11:15:13.586Z,-3.80
2017-11-30T11:16:14.193Z,-3.88
2017-11-30T11:17:14.796Z,-4.02
2017-11-30T11:18:15.400Z,-4.03
2017-11-30T11:19:16.012Z,-4.25
2017-11-30T11:20:16.613Z,-4.25
2017-11-30T11:21:17.218Z,-4.22
2017-11-30T11:22:17.828Z,-4.27
2017-11-30T11:23:18.428Z,-4.27
2017-11-30T11:24:19.033Z,-4.20
2017-11-30T11:25:19.639Z,-4.20
2017-11-30T11:26:20.244Z,-3.96
2017-11-30T11:27:20.880Z,-3.92
2017-11-30T11:28:21.484Z,-3.88
2017-11-30T11:29:22.091Z,-3.80
2017-11-30T11:30:22.694Z,-3.72
2017-11-30T11:31:23.297Z,-3.70
2017-11-30T11:32:23.904Z,-3.58
2017-11-30T11:33:24.545Z,-3.75
2017-11-30T11:34:25.146Z,-3.82
2017-11-30T11:35:25.753Z,-3.91
2017-11-30T11:36:26.359Z,-4.07
2017-11-30T11:37:26.963Z,-4.17
2017-11-30T11:38:27.572Z,-4.10
2017-11-30T11:39:28.188Z,-4.12
2017-11-30T11:40:28.782Z,-3.95
2017-11-30T11:41:29.390Z,-3.96
2017-11-30T11:42:29.997Z,-3.99
2017-11-30T11:43:30.632Z,-4.04
2017-11-30T11:44:31.240Z,-3.95
2017-11-30T11:45:31.877Z,-3.91
2017-11-30T11:46:32.486Z,-4.02
2017-11-30T11:47:33.116Z,-3.96
2017-11-30T11:48:33.722Z,-3.95
2017-11-30T11:49:34.332Z,-3.99
2017-11-30T11:50:34.936Z,-3.96
2017-11-30T11:51:35.571Z,-4.02
2017-11-30T11:52:36.176Z,-3.85
2017-11-30T11:53:36.780Z,-3.88
2017-11-30T11:54:37.385Z,-3.95
2017-11-30T11:55:38.008Z,-4.02
2017-11-30T11:56:38.596Z,-3.95
2017-11-30T11:57:39.210Z,-3.93
2017-11-30T11:58:39.808Z,-4.04
2017-11-30T11:59:40.417Z,-4.03
2017-11-30T12:00:41.018Z,-4.14
2017-11-30T12:01:41.626Z,-4.22
2017-11-30T12:02:42.231Z,-4.20
2017-11-30T12:03:42.868Z,-4.21
2017-11-30T12:04:43.524Z,-4.25
2017-11-30T12:05:44.129Z,-4.42
2017-11-30T12:06:44.736Z,-4.52
2017-11-30T12:07:45.341Z,-4.53
2017-11-30T12:08:45.945Z,-4.64
2017-11-30T12:09:46.560Z,-4.77
2017-11-30T12:10:47.155Z,-4.79
2017-11-30T12:11:47.762Z,-4.82
2017-11-30T12:12:48.372Z,-4.82
2017-11-30T12:13:49.009Z,-4.75
2017-11-30T12:14:49.665Z,-4.81
2017-11-30T12:15:50.275Z,-4.75
2017-11-30T12:16:50.907Z,-4.78
2017-11-30T12:17:51.522Z,-4.78
2017-11-30T12:18:52.118Z,-4.70
2017-11-30T12:19:52.727Z,-4.71
2017-11-30T12:20:53.337Z,-4.63
2017-11-30T12:21:53.936Z,-4.64
2017-11-30T12:22:54.544Z,-4.66
2017-11-30T12:23:55.175Z,-4.61
2017-11-30T12:24:55.776Z,-4.53
2017-11-30T12:25:56.388Z,-4.55
2017-11-30T12:26:57.029Z,-4.55
2017-11-30T12:27:57.634Z,-4.41
2017-11-30T12:28:58.237Z,-4.45
2017-11-30T12:29:58.851Z,-4.49
2017-11-30T12:30:59.473Z,-4.38
2017-11-30T12:32:00.098Z,-4.38
2017-11-30T12:33:00.705Z,-4.43
2017-11-30T12:34:01.309Z,-4.49
2017-11-30T12:35:01.913Z,-4.46
2017-11-30T12:36:02.519Z,-4.42
2017-11-30T12:37:03.125Z,-4.45
2017-11-30T12:38:03.731Z,-4.53
2017-11-30T12:39:04.337Z,-4.53
2017-11-30T12:40:04.943Z,-4.63
2017-11-30T12:41:05.552Z,-4.66
2017-11-30T12:42:06.154Z,-4.67
2017-11-30T12:43:06.759Z,-4.66
2017-11-30T12:44:07.365Z,-4.64
2017-11-30T12:45:08.057Z,-4.64
2017-11-30T12:46:08.658Z,-4.61
2017-11-30T12:47:09.262Z,-4.60
2017-11-30T12:48:09.906Z,-4.57
2017-11-30T12:49:10.505Z,-4.42
2017-11-30T12:50:11.109Z,-4.52
2017-11-30T12:51:11.719Z,-4.46
2017-11-30T12:52:12.393Z,-4.64
2017-11-30T12:53:12.924Z,-4.53
2017-11-30T12:54:13.529Z,-4.53
2017-11-30T12:55:14.132Z,-4.53
2017-11-30T12:56:14.741Z,-4.61
2017-11-30T12:57:15.345Z,-4.57
2017-11-30T12:58:15.985Z,-4.59
2017-11-30T12:59:16.586Z,-4.53
2017-11-30T13:00:17.192Z,-4.59